Latest Coastal Weather Observations for Devonport Airport

IDT60701

Issued at 6:22 am EDT Saturday 21 October 2017 (issued every 10 minutes, with the page automatically refreshed every 10 minutes)

About coastal observations | Map of coastal stations | Coastal observations for TAS | Marine services | Other Formats
Station Details ID: 091126 Name: DEVONPORT AIRPORT Lat: -41.17 Lon: 146.43 Height: 8.0 m
Data from the previous 72 hours. | See also: Recent months at Devonport Airport
Date/Time
EDT
Temp
°C
Wind Pressure Rain since
9am
mm
Weather Cloud Vis
km
Sea
Height
m
Swell
Dir  Spd
kts
Gust
kts
hPa Trend Height
m
Period
s
Dir
21/06:00am 7.8 SW 8 11 1021.6 - 0.0 - - 10 - - - -
21/05:30am 8.5 WSW 12 16 1021.5 - 0.0 - - 10 - - - -
21/05:00am 8.2 WSW 10 11 1021.7 - 0.0 - - 10 - - - -
21/04:30am 9.5 SW 12 16 1021.8 - 0.0 - - 10 - - - -
21/04:00am 8.5 WSW 7 9 1022.1 - 0.0 - - 10 - - - -
21/03:30am 8.1 WSW 7 10 1022.1 - 0.0 - - 10 - - - -
21/03:00am 8.2 WSW 6 7 1022.5 - 0.0 - - 10 - - - -
21/02:30am 8.6 W 11 16 1022.5 - 0.0 - - 10 - - - -
21/02:00am 9.8 W 13 18 1022.5 - 0.0 - - 10 - - - -
21/01:30am 9.9 W 13 15 1023.1 - 0.0 - - 10 - - - -
21/01:00am 10.1 W 12 14 1023.6 - 0.0 - - 10 - - - -
21/12:30am 10.1 WSW 10 12 1023.9 - 0.0 - - 10 - - - -
21/12:00am 10.5 WSW 7 11 1024.3 - 0.0 - Cloudy 10 - - - -
 
Date/Time
EDT
Temp
°C
Wind Pressure Rain since
9am
mm
Weather Cloud Vis
km
Sea
Height
m
Swell
Dir  Spd
kts
Gust
kts
hPa Trend Height
m
Period
s
Dir
20/11:30pm 10.8 WSW 10 13 1024.6 - 0.0 - - 10 - - - -
20/11:00pm 11.0 SW 8 13 1024.6 - 0.0 - - 10 - - - -
20/10:30pm 10.8 WSW 11 15 1024.8 - 0.0 - - 10 - - - -
20/10:00pm 10.9 SW 7 12 1024.8 - 0.0 - - 10 - - - -
20/09:30pm 10.8 WSW 13 18 1024.5 - 0.0 - - 10 - - - -
20/09:00pm 10.8 WSW 14 19 1024.7 - 0.0 - Cloudy 10 - - - -
20/08:30pm 10.5 SW 14 17 1024.5 - 0.0 - - 10 - - - -
20/08:00pm 11.5 SW 15 20 1024.2 - 0.0 - - 10 - - - -
20/07:30pm 12.0 SW 15 20 1024.1 - 0.0 - - 10 - - - -
20/07:00pm 13.2 SW 14 21 1023.8 - 0.0 - - 10 - - - -
20/06:30pm 13.7 WSW 16 22 1023.5 - 0.0 - - 10 - - - -
20/06:00pm 13.8 WSW 19 24 1023.4 - 0.0 - - 10 - - - -
20/05:30pm 15.2 SW 19 25 1023.1 - 0.0 - - 10 - - - -
20/05:00pm 15.7 SW 19 25 1022.8 - 0.0 - - 10 - - - -
20/04:30pm 15.8 WSW 21 27 1022.5 - 0.0 - - 10 - - - -
20/04:00pm 16.6 WSW 20 25 1022.6 - 0.0 - - 10 - - - -
20/03:30pm 17.5 WSW 16 21 1022.6 - 0.0 - - 10 - - - -
20/03:00pm 17.4 WSW 16 24 1022.6 - 0.0 - Mostly clear 10 - - - -
20/02:30pm 17.9 WSW 16 21 1022.6 - 0.0 - Partly cloudy 10 - - - -
20/02:00pm 17.0 W 14 22 1022.6 - 0.0 - Partly cloudy 10 - - - -
20/01:56pm 17.0 WSW 15 25 1022.7 - 0.0 - Partly cloudy 10 - - - -
20/01:30pm 17.1 SW 13 17 1022.6 - 0.0 - Partly cloudy 10 - - - -
20/01:00pm 16.3 WSW 14 20 1022.6 - 0.0 - Partly cloudy 10 - - - -
20/12:30pm 16.2 W 16 21 1022.6 - 0.0 - Partly cloudy 10 - - - -
20/12:00pm 16.0 WSW 13 19 1022.8 - 0.0 - Partly cloudy 10 - - - -
20/11:30am 14.9 WSW 14 20 1022.7 - 0.0 - Partly cloudy 10 - - - -
20/11:00am 14.3 W 15 20 1022.8 - 0.0 - Partly cloudy 10 - - - -
20/10:30am 14.4 W 15 21 1022.7 - 0.0 - Partly cloudy 10 - - - -
20/10:00am 12.9 W 15 19 1022.4 - 0.0 - Partly cloudy 10 - - - -
20/09:30am 13.3 WNW 14 18 1022.0 - 0.0 - Partly cloudy 10 - - - -
20/09:00am 11.6 WNW 16 20 1021.9 - 4.6 - Cloudy 10 - - - -
20/08:30am 11.6 WNW 15 19 1021.6 - 4.6 - Partly cloudy 10 - - - -
20/08:00am 11.6 W 13 18 1021.3 - 4.6 - Partly cloudy 10 - - - -
20/07:30am 10.5 W 9 13 1020.9 - 4.6 - - 10 - - - -
20/07:00am 9.0 WSW 7 11 1020.7 - 4.6 - - 10 - - - -
20/06:30am 8.4 W 9 11 1020.1 - 4.6 - - 10 - - - -
20/06:00am 8.5 W 10 13 1019.5 - 4.6 - Mostly clear 10 - - - -
20/05:30am 8.4 W 7 9 1019.2 - 4.6 - - 10 - - - -
20/05:00am 9.3 WSW 9 12 1019.0 - 4.6 - Partly cloudy 10 - - - -
20/04:30am 8.9 WSW 7 9 1018.8 - 4.6 - - 10 - - - -
20/04:00am 8.8 WSW 8 11 1018.5 - 4.6 - - 10 - - - -
20/03:30am 9.2 W 10 12 1018.3 - 4.6 - - 10 - - - -
20/03:00am 9.8 W 10 15 1018.1 - 4.6 - - 10 - - - -
20/02:30am 10.8 W 12 16 1017.9 - 4.6 - Partly cloudy 10 - - - -
20/02:00am 11.6 WNW 18 23 1018.0 - 4.6 - Partly cloudy 10 - - - -
20/01:30am 12.3 WNW 17 22 1018.2 - 4.6 - Partly cloudy 10 - - - -
20/01:00am 12.0 WNW 16 22 1018.2 - 4.6 - Partly cloudy 10 - - - -
20/12:30am 12.1 WNW 15 20 1018.1 - 4.6 - Partly cloudy 10 - - - -
20/12:00am 12.0 WNW 16 19 1018.2 - 4.6 - Partly cloudy 10 - - - -
 
Date/Time
EDT
Temp
°C
Wind Pressure Rain since
9am
mm
Weather Cloud Vis
km
Sea
Height
m
Swell
Dir  Spd
kts
Gust
kts
hPa Trend Height
m
Period
s
Dir
19/11:30pm 11.7 WNW 15 18 1018.4 - 4.6 - Partly cloudy 10 - - - -
19/11:00pm 12.0 WNW 16 20 1018.5 - 4.6 - Partly cloudy 10 - - - -
19/10:30pm 11.6 W 13 18 1018.5 - 4.6 - - 10 - - - -
19/10:00pm 11.3 W 12 16 1017.8 - 4.6 - - 10 - - - -
19/09:30pm 12.1 W 12 17 1017.5 - 4.6 - - 10 - - - -
19/09:00pm 12.1 W 13 19 1016.7 - 4.6 - - 10 - - - -
19/08:30pm 12.7 W 16 23 1015.8 - 4.6 - - 10 - - - -
19/08:00pm 13.8 W 19 26 1015.0 - 4.6 - - 10 - - - -
19/07:30pm 15.0 W 16 21 1014.2 - 4.6 - - 10 - - - -
19/07:00pm 15.9 W 9 15 1013.5 - 4.6 - - 10 - - - -
19/06:30pm 17.0 WSW 12 15 1012.6 - 4.6 - - 10 - - - -
19/06:00pm 16.0 WNW 14 19 1012.2 - 4.6 - - 10 - - - -
19/05:33pm 15.3 NW 15 22 1012.1 - 4.6 - Partly cloudy 10 - - - -
19/05:30pm 15.3 NW 15 19 1012.1 - 4.6 - Partly cloudy 10 - - - -
19/05:00pm 15.2 NW 15 19 1012.1 - 4.6 - Cloudy 10 - - - -
19/04:30pm 15.4 NW 18 23 1011.9 - 4.6 - Cloudy 10 - - - -
19/04:00pm 15.3 NW 16 22 1012.1 - 4.6 - Cloudy 10 - - - -
19/03:30pm 15.5 NW 17 20 1012.1 - 4.6 - Cloudy 9 - - - -
19/03:00pm 15.7 NW 14 22 1012.3 - 4.6 Drizzle Cloudy 10 - - - -
19/02:30pm 15.3 NNW 11 15 1012.5 - 4.6 - Cloudy 10 - - - -
19/02:26pm 15.3 NNW 11 14 1012.5 - 4.6 - Cloudy 9 - - - -
19/02:00pm 14.7 NNW 7 8 1012.9 - 4.6 - Cloudy 4 - - - -
19/01:43pm 14.6 NNW 7 9 1013.0 - 4.4 - Cloudy 6 - - - -
19/01:30pm 14.7 NNW 8 9 1013.2 - 4.4 - Cloudy 8 - - - -
19/01:28pm 15.0 NNW 8 9 1013.1 - 4.4 - Cloudy 8 - - - -
19/01:00pm 14.7 NNW 8 10 1013.2 - 4.4 - Partly cloudy 5 - - - -
19/12:37pm 14.7 N 7 8 1013.6 - 3.8 - Partly cloudy 6 - - - -
19/12:32pm 14.8 N 6 8 1013.6 - 3.6 - Partly cloudy 8 - - - -
19/12:30pm 14.7 N 6 8 1013.6 - 3.6 - Partly cloudy 8 - - - -
19/12:00pm 15.1 N 5 7 1013.6 - 3.6 Rain Cloudy 8 - - - -
19/11:55am 15.1 N 6 7 1013.6 - 3.6 - Partly cloudy 8 - - - -
19/11:34am 15.5 NNW 5 7 1013.4 - 3.6 - Partly cloudy 10 - - - -
19/11:30am 15.2 N 4 6 1013.3 - 3.6 - Partly cloudy 10 - - - -
19/11:03am 14.8 WNW 3 5 1013.2 - 3.4 - Partly cloudy 8 - - - -
19/11:00am 14.9 WNW 3 5 1013.2 - 3.4 - Partly cloudy 8 - - - -
19/10:30am 14.8 WNW 5 6 1013.4 - 2.6 - Cloudy 7 - - - -
19/10:11am 14.9 N 5 8 1013.5 - 2.2 - Cloudy 7 - - - -
19/10:07am 15.0 NNE 6 8 1013.4 - 2.0 - Cloudy 7 - - - -
19/10:00am 15.1 NE 7 8 1013.0 - 2.0 - Partly cloudy 6 - - - -
19/09:47am 15.2 NE 6 8 1013.4 - 1.6 - Cloudy 6 - - - -
19/09:34am 15.1 NE 7 11 1013.1 - 1.2 - Partly cloudy 7 - - - -
19/09:30am 15.2 NE 8 11 1013.1 - 1.0 - Partly cloudy 7 - - - -
19/09:00am 15.5 NE 8 10 1013.5 - 2.6 Rain Cloudy 5 - - - -
19/08:58am 15.5 NE 7 10 1013.6 - 2.2 - Partly cloudy 6 - - - -
19/08:30am 15.4 NE 2 4 1013.8 - 0.4 - Cloudy 10 - - - -
19/08:00am 15.5 S 4 5 1013.6 - 0.0 - Partly cloudy 10 - - - -
19/07:30am 14.8 SSE 3 4 1013.8 - 0.0 - Partly cloudy 10 - - - -
19/07:00am 13.8 SSE 5 7 1013.5 - 0.0 - Partly cloudy 10 - - - -
19/06:30am 13.8 SSE 5 7 1013.2 - 0.0 - Cloudy 10 - - - -
19/06:00am 14.1 SSE 6 7 1013.4 - 0.0 - Mostly cloudy 10 - - - -
19/05:30am 14.3 SE 5 7 1013.5 - 0.0 - Cloudy 10 - - - -
19/05:00am 14.2 SSE 4 6 1014.1 - 0.0 - Cloudy 10 - - - -
19/04:30am 14.3 SSE 5 7 1014.5 - 0.0 - Cloudy 10 - - - -
19/04:00am 14.0 SSE 7 9 1014.6 - 0.0 - Cloudy 10 - - - -
19/03:30am 14.7 SSE 9 10 1014.8 - 0.0 - Cloudy 10 - - - -
19/03:00am 14.0 SSE 8 9 1015.3 - 0.0 - Mostly cloudy 10 - - - -
19/02:30am 13.5 SSE 7 9 1016.1 - 0.0 - - 10 - - - -
19/02:00am 13.6 SSE 7 8 1016.4 - 0.0 - - 10 - - - -
19/01:30am 14.0 SSE 5 7 1016.8 - 0.0 - - 10 - - - -
19/01:00am 14.6 SE 6 7 1017.3 - 0.0 - - 10 - - - -
19/12:30am 15.2 E 5 7 1017.8 - 0.0 - Partly cloudy 10 - - - -
19/12:00am 15.1 SE 6 8 1018.0 - 0.0 - Partly cloudy 10 - - - -
 
Date/Time
EDT
Temp
°C
Wind Pressure Rain since
9am
mm
Weather Cloud Vis
km
Sea
Height
m
Swell
Dir  Spd
kts
Gust
kts
hPa Trend Height
m
Period
s
Dir
18/11:30pm 15.3 SSE 7 8 1018.2 - 0.0 - Partly cloudy 10 - - - -
18/11:00pm 14.8 SSE 7 9 1018.5 - 0.0 - Partly cloudy 10 - - - -
18/10:30pm 14.6 SSE 6 8 1018.9 - 0.0 - - 10 - - - -
18/10:00pm 14.8 SSE 7 8 1019.2 - 0.0 - - 10 - - - -
18/09:30pm 15.0 SSE 7 8 1019.4 - 0.0 - - 10 - - - -
18/09:00pm 15.0 SSE 6 7 1019.5 - 0.0 - - 10 - - - -
18/08:30pm 14.9 CALM 0 0 1019.5 - 0.0 - - 10 - - - -
18/08:00pm 15.5 E 3 4 1019.2 - 0.0 - - 10 - - - -
18/07:30pm 16.2 E 3 4 1019.2 - 0.0 - - 10 - - - -
18/07:00pm 17.1 CALM 0 2 1019.1 - 0.0 - - 10 - - - -
18/06:30pm 17.1 NE 2 4 1018.9 - 0.0 - - 10 - - - -
18/06:00pm 17.6 NNE 5 7 1018.8 - 0.0 - - 10 - - - -
18/05:30pm 17.5 NE 5 7 1019.1 - 0.0 - - 10 - - - -
18/05:00pm 17.4 NNE 7 10 1019.2 - 0.0 - - 10 - - - -
18/04:30pm 18.0 NNE 6 9 1019.3 - 0.0 - - 10 - - - -
18/04:00pm 17.8 N 5 8 1019.5 - 0.0 - - 10 - - - -
18/03:30pm 17.9 N 6 9 1019.7 - 0.0 - - 10 - - - -
18/03:00pm 18.1 NE 5 7 1020.0 - 0.0 - - 10 - - - -
18/02:30pm 18.1 NNE 7 9 1020.6 - 0.0 - - 10 - - - -
18/02:00pm 18.3 NNE 7 9 1021.1 - 0.0 - - 10 - - - -
18/01:30pm 18.1 N 9 11 1021.4 - 0.0 - - 10 - - - -
18/01:00pm 18.7 N 7 10 1021.6 - 0.0 - - 10 - - - -
18/12:30pm 19.4 N 7 10 1022.0 - 0.0 - - 10 - - - -
18/12:00pm 19.8 N 6 7 1021.9 - 0.0 - - 10 - - - -
18/11:30am 19.9 NNE 7 9 1022.1 - 0.0 - - 10 - - - -
18/11:00am 19.9 NE 6 8 1022.8 - 0.0 - - 10 - - - -
18/10:30am 19.2 NE 5 7 1023.1 - 0.0 - - 10 - - - -
18/10:00am 18.6 NE 5 7 1023.3 - 0.0 - - 10 - - - -
18/09:30am 17.9 E 4 5 1023.3 - 0.0 - - 10 - - - -
18/09:00am 16.9 NNE 4 6 1023.6 - 0.0 - - 10 - - - -
18/08:30am 16.5 SSE 4 5 1023.5 - 0.0 - - 10 - - - -
18/08:00am 14.2 S 9 12 1022.9 - 0.0 - - 10 - - - -
18/07:30am 12.6 SSE 10 12 1022.8 - 0.0 - - 10 - - - -
18/07:00am 11.5 SSE 11 13 1022.5 - 0.0 - - 10 - - - -
18/06:30am 11.4 SSE 11 13 1022.3 - 0.0 - - 10 - - - -

Other Formats:

Comma delimited format used in spreadsheet applications
http://www.bom.gov.au/fwo/IDT60701/IDT60701.95960.axf

JavaScript Object Notation format (JSON) in row-major order
http://www.bom.gov.au/fwo/IDT60701/IDT60701.95960.json